Time;durP1;ratioP1;P1;durP2;ratioP2;P2;SDS_P1;SDS_P2;PMS_P1;PMS_P2;Temp;Humidity;BMP_temperature;BMP_pressure;BME280_temperature;BME280_humidity;BME280_pressure;Samples;Min_cycle;Max_cycle;Signal;HPM_P1;HPM_P2
2023/09/20 00:02:53;;;;;;;6.22;1.73;;;17.80;99.90;;;;;;7315142;32;20205;-55
2023/09/20 00:06:55;;;;;;;6.37;1.33;;;17.80;99.90;;;;;;7318017;32;20230;-55
2023/09/20 00:10:56;;;;;;;7.10;1.50;;;17.70;99.90;;;;;;7306304;32;20512;-55
2023/09/20 00:14:59;;;;;;;6.85;1.45;;;17.70;99.90;;;;;;7314054;32;20126;-55
2023/09/20 00:19:01;;;;;;;7.57;1.45;;;17.60;99.90;;;;;;7305214;32;20126;-56
2023/09/20 00:23:03;;;;;;;6.03;1.50;;;17.50;99.90;;;;;;7313379;32;20104;-55
2023/09/20 00:27:05;;;;;;;5.50;1.40;;;17.60;99.90;;;;;;7311267;32;20487;-55
2023/09/20 00:31:09;;;;;;;4.82;1.40;;;17.50;99.90;;;;;;7310922;32;20105;-56
2023/09/20 00:35:12;;;;;;;4.75;1.10;;;17.50;99.90;;;;;;7320546;32;20649;-55
2023/09/20 00:39:14;;;;;;;7.05;1.10;;;17.50;99.90;;;;;;7308464;32;20224;-55
2023/09/20 00:43:23;;;;;;;3.37;1.17;;;17.50;99.90;;;;;;7301841;32;20173;-55
2023/09/20 00:47:26;;;;;;;3.37;1.30;;;17.50;99.90;;;;;;7302490;32;20227;-56
2023/09/20 00:51:28;;;;;;;4.22;1.37;;;17.40;99.90;;;;;;7307164;32;20196;-54
2023/09/20 00:55:33;;;;;;;4.90;1.40;;;17.40;99.90;;;;;;7307370;32;20202;-55
2023/09/20 00:59:36;;;;;;;3.35;0.90;;;17.30;99.90;;;;;;7301607;32;20100;-55
2023/09/20 01:03:39;;;;;;;4.65;1.50;;;17.20;99.90;;;;;;7308321;32;20274;-55
2023/09/20 01:07:42;;;;;;;6.25;1.50;;;17.20;99.90;;;;;;7308321;32;20122;-57
2023/09/20 01:11:44;;;;;;;4.50;1.37;;;17.10;99.90;;;;;;7307918;32;20092;-55
2023/09/20 01:15:46;;;;;;;6.32;1.40;;;17.00;99.90;;;;;;7307435;32;20571;-55
2023/09/20 01:19:48;;;;;;;4.05;1.20;;;17.00;99.90;;;;;;7304178;32;20108;-54
2023/09/20 01:23:50;;;;;;;5.70;1.45;;;16.90;99.90;;;;;;7312456;32;20087;-55
2023/09/20 01:27:56;;;;;;;6.70;1.60;;;16.80;99.90;;;;;;7307943;32;20434;-55
2023/09/20 01:32:02;;;;;;;5.60;1.48;;;16.80;99.90;;;;;;7308943;32;20111;-55
2023/09/20 01:36:04;;;;;;;6.37;1.48;;;16.60;99.90;;;;;;7306299;32;20131;-56
2023/09/20 01:40:15;;;;;;;7.12;1.58;;;16.60;99.90;;;;;;7315315;32;20103;-56
2023/09/20 01:44:17;;;;;;;5.03;1.67;;;16.50;99.90;;;;;;7310528;32;20536;-56
2023/09/20 01:48:20;;;;;;;4.75;1.58;;;16.30;99.90;;;;;;7302368;32;20539;-55
2023/09/20 01:52:23;;;;;;;4.15;1.40;;;16.40;99.90;;;;;;7306799;32;20136;-56
2023/09/20 01:56:26;;;;;;;4.80;1.67;;;16.30;99.90;;;;;;7305443;32;20092;-56
2023/09/20 02:00:31;;;;;;;9.02;1.45;;;16.30;99.90;;;;;;7312045;32;20207;-56
2023/09/20 02:04:33;;;;;;;3.33;1.80;;;16.30;99.90;;;;;;7308637;32;20476;-56
2023/09/20 02:08:34;;;;;;;6.72;1.80;;;16.10;99.90;;;;;;7307845;32;20153;-57
2023/09/20 02:12:36;;;;;;;3.85;1.10;;;16.00;99.90;;;;;;7315813;32;20104;-55
2023/09/20 02:16:38;;;;;;;7.45;1.42;;;16.00;99.90;;;;;;7310956;32;20194;-55
2023/09/20 02:20:40;;;;;;;4.28;1.50;;;15.90;99.90;;;;;;7307067;32;20416;-55
2023/09/20 02:24:42;;;;;;;3.62;1.52;;;15.90;99.90;;;;;;7305096;32;20115;-57
2023/09/20 02:28:44;;;;;;;6.95;1.65;;;16.00;99.90;;;;;;7304280;32;20112;-56
2023/09/20 02:32:52;;;;;;;7.45;1.80;;;15.90;99.90;;;;;;7305933;32;20301;-55
2023/09/20 02:36:56;;;;;;;3.92;1.70;;;15.90;99.90;;;;;;7309850;32;20173;-56
2023/09/20 02:40:58;;;;;;;4.40;1.62;;;15.80;99.90;;;;;;7305200;32;20199;-55
2023/09/20 02:45:00;;;;;;;5.97;1.65;;;15.80;99.90;;;;;;7303377;32;20543;-56
2023/09/20 02:49:03;;;;;;;3.28;1.30;;;15.70;99.90;;;;;;7303791;32;20263;-55
2023/09/20 02:53:06;;;;;;;4.47;1.50;;;15.80;99.90;;;;;;7304352;32;20200;-55
2023/09/20 02:57:10;;;;;;;5.32;1.52;;;15.60;99.90;;;;;;7292763;32;20151;-55
2023/09/20 03:01:15;;;;;;;6.85;1.80;;;15.70;99.90;;;;;;7309170;32;20894;-55
2023/09/20 03:05:19;;;;;;;3.85;1.50;;;15.60;99.90;;;;;;7308092;32;20238;-56
2023/09/20 03:09:24;;;;;;;4.22;1.20;;;15.60;99.90;;;;;;7307413;32;20149;-55
2023/09/20 03:13:26;;;;;;;3.95;1.42;;;15.60;99.90;;;;;;7312118;32;20174;-55
2023/09/20 03:17:30;;;;;;;5.20;1.62;;;15.50;99.90;;;;;;7304778;32;20156;-55
2023/09/20 03:21:32;;;;;;;6.70;1.77;;;15.60;99.90;;;;;;7303953;32;20266;-55
2023/09/20 03:25:36;;;;;;;11.10;1.55;;;15.60;99.90;;;;;;7309076;32;20195;-57
2023/09/20 03:29:39;;;;;;;3.85;1.70;;;15.60;99.90;;;;;;7307328;32;20107;-57
2023/09/20 03:33:42;;;;;;;4.78;1.40;;;15.60;99.90;;;;;;7307057;32;20099;-55
2023/09/20 03:37:44;;;;;;;5.45;2.20;;;15.60;99.90;;;;;;7306145;32;20218;-56
2023/09/20 03:41:46;;;;;;;5.72;1.27;;;15.60;99.90;;;;;;7306886;32;20095;-56
2023/09/20 03:45:47;;;;;;;5.43;1.55;;;15.60;99.90;;;;;;7291078;32;20200;-56
2023/09/20 03:49:52;;;;;;;3.55;1.30;;;15.50;99.90;;;;;;7306101;32;20103;-55
2023/09/20 03:53:54;;;;;;;5.78;1.62;;;15.40;99.90;;;;;;7311166;32;20169;-56
2023/09/20 03:57:56;;;;;;;6.15;1.90;;;15.30;99.90;;;;;;7303018;32;20254;-55
2023/09/20 04:01:57;;;;;;;5.25;1.87;;;15.30;99.90;;;;;;7307902;32;20156;-56
2023/09/20 04:05:59;;;;;;;5.97;1.70;;;15.20;99.90;;;;;;7294030;32;20221;-54
2023/09/20 04:10:02;;;;;;;7.43;1.77;;;15.20;99.90;;;;;;7304543;32;20124;-55
2023/09/20 04:14:09;;;;;;;7.22;1.60;;;15.20;99.90;;;;;;7301371;32;20123;-56
2023/09/20 04:18:12;;;;;;;5.00;1.50;;;15.10;99.90;;;;;;7305849;32;20205;-56
2023/09/20 04:22:15;;;;;;;5.10;1.67;;;15.10;99.90;;;;;;7305285;32;20190;-55
2023/09/20 04:26:16;;;;;;;6.75;2.03;;;15.10;99.90;;;;;;7307981;32;20187;-55
2023/09/20 04:30:18;;;;;;;4.12;1.80;;;15.10;99.90;;;;;;7303655;32;20112;-56
2023/09/20 04:34:20;;;;;;;3.95;1.62;;;15.10;99.90;;;;;;7297332;32;20139;-55
2023/09/20 04:38:22;;;;;;;5.85;1.80;;;15.10;99.90;;;;;;7301764;32;20263;-58
2023/09/20 04:42:23;;;;;;;4.18;1.40;;;15.00;99.90;;;;;;7303354;32;20104;-57
2023/09/20 04:46:27;;;;;;;8.63;2.00;;;15.00;99.90;;;;;;7302451;32;20123;-56
2023/09/20 04:50:29;;;;;;;8.55;2.15;;;15.00;99.90;;;;;;7304019;32;20212;-55
2023/09/20 04:54:31;;;;;;;3.50;1.40;;;15.00;99.90;;;;;;7300342;32;20105;-55
2023/09/20 04:58:32;;;;;;;4.07;1.80;;;15.00;99.90;;;;;;7300501;32;20214;-56
2023/09/20 05:02:34;;;;;;;6.82;1.75;;;15.00;99.90;;;;;;7294290;32;20122;-55
2023/09/20 05:06:37;;;;;;;6.43;1.83;;;15.00;99.90;;;;;;7303008;32;20198;-56
2023/09/20 05:10:39;;;;;;;5.00;1.65;;;15.00;99.90;;;;;;7304164;32;20616;-55
2023/09/20 05:14:42;;;;;;;6.75;1.77;;;14.90;99.90;;;;;;7310298;32;20461;-55
2023/09/20 05:18:44;;;;;;;5.93;1.80;;;14.90;99.90;;;;;;7305424;32;20203;-58
2023/09/20 05:22:46;;;;;;;5.82;1.67;;;15.00;99.90;;;;;;7313455;32;20236;-57
2023/09/20 05:26:48;;;;;;;3.67;1.30;;;14.90;99.90;;;;;;7294727;32;20204;-55
2023/09/20 05:30:50;;;;;;;2.60;1.27;;;15.00;99.90;;;;;;7290675;32;20191;-56
2023/09/20 05:34:53;;;;;;;3.37;1.80;;;15.00;99.90;;;;;;7291996;32;20386;-56
2023/09/20 05:38:55;;;;;;;6.57;1.70;;;15.00;99.90;;;;;;7293896;32;20462;-56
2023/09/20 05:42:58;;;;;;;4.43;1.70;;;15.00;99.90;;;;;;7292203;32;20104;-57
2023/09/20 05:47:00;;;;;;;4.87;1.85;;;15.00;99.90;;;;;;7299120;32;20404;-57
2023/09/20 05:51:02;;;;;;;3.50;1.58;;;15.00;99.90;;;;;;7314968;32;20145;-57
2023/09/20 05:55:08;;;;;;;4.60;1.70;;;15.00;99.90;;;;;;7307223;32;20473;-57
2023/09/20 05:59:10;;;;;;;5.40;2.42;;;15.00;99.90;;;;;;7296421;32;20108;-59
2023/09/20 06:03:12;;;;;;;9.30;2.35;;;15.00;99.90;;;;;;7299997;32;20637;-56
2023/09/20 06:07:14;;;;;;;8.93;2.20;;;15.00;99.90;;;;;;7303120;32;20112;-57
2023/09/20 06:11:18;;;;;;;5.20;2.20;;;15.10;99.90;;;;;;7291198;32;20237;-57
2023/09/20 06:15:20;;;;;;;5.18;1.73;;;15.20;99.90;;;;;;7301178;32;20238;-56
2023/09/20 06:19:22;;;;;;;6.65;1.70;;;15.30;99.90;;;;;;7293269;32;20436;-58
2023/09/20 06:23:27;;;;;;;5.28;1.45;;;15.30;99.90;;;;;;7304548;32;20104;-57
2023/09/20 06:27:31;;;;;;;4.22;1.60;;;15.40;99.90;;;;;;7305339;32;20126;-57
2023/09/20 06:31:33;;;;;;;5.28;1.65;;;15.40;99.90;;;;;;7307801;32;20213;-57
2023/09/20 06:35:43;;;;;;;6.85;1.87;;;15.50;99.90;;;;;;7306902;32;20135;-57
2023/09/20 06:39:45;;;;;;;6.53;1.80;;;15.60;99.90;;;;;;7305681;32;20880;-57
2023/09/20 06:43:46;;;;;;;4.53;1.95;;;15.60;99.90;;;;;;7301902;32;20991;-56
2023/09/20 06:47:49;;;;;;;5.28;1.65;;;15.70;99.90;;;;;;7308114;32;20116;-57
2023/09/20 06:51:50;;;;;;;5.68;1.85;;;15.80;99.90;;;;;;7304312;32;20195;-56
2023/09/20 06:55:53;;;;;;;7.53;1.90;;;15.90;99.90;;;;;;7307989;32;20116;-57
2023/09/20 06:59:55;;;;;;;5.03;1.70;;;16.00;99.90;;;;;;7306220;32;20185;-56
2023/09/20 07:03:56;;;;;;;3.83;1.75;;;16.00;99.90;;;;;;7304876;32;20107;-56
2023/09/20 07:08:01;;;;;;;4.53;1.45;;;16.00;99.90;;;;;;7304454;32;20800;-57
2023/09/20 07:12:03;;;;;;;4.50;1.80;;;16.10;99.90;;;;;;7301587;32;20206;-56
2023/09/20 07:16:06;;;;;;;3.40;1.40;;;16.20;99.90;;;;;;7302814;32;20807;-56
2023/09/20 07:20:14;;;;;;;5.87;1.40;;;16.30;99.90;;;;;;7299694;32;20498;-58
2023/09/20 07:24:16;;;;;;;6.72;1.95;;;16.30;99.90;;;;;;7301823;32;20235;-58
2023/09/20 07:28:18;;;;;;;5.15;1.70;;;16.40;99.90;;;;;;7303333;32;20140;-57
2023/09/20 07:32:20;;;;;;;3.55;1.70;;;16.50;99.90;;;;;;7295843;32;20185;-56
2023/09/20 07:36:23;;;;;;;6.03;1.60;;;16.60;99.90;;;;;;7306672;32;20149;-57
2023/09/20 07:40:40;;;;;;;4.10;1.50;;;16.70;99.90;;;;;;7301940;32;20296;-56
2023/09/20 07:44:43;;;;;;;2.28;1.30;;;16.80;99.90;;;;;;7297229;32;20226;-57
2023/09/20 07:48:50;;;;;;;4.50;1.50;;;16.80;99.90;;;;;;7299560;32;20112;-58
2023/09/20 07:52:51;;;;;;;4.85;1.70;;;16.90;99.90;;;;;;7307830;32;20136;-56
2023/09/20 07:56:53;;;;;;;3.37;1.70;;;17.00;99.90;;;;;;7302476;32;20108;-57
2023/09/20 08:00:58;;;;;;;4.82;1.50;;;17.00;99.90;;;;;;7300320;32;20344;-57
2023/09/20 08:05:01;;;;;;;3.72;1.40;;;17.00;99.90;;;;;;7297869;32;20132;-55
2023/09/20 08:09:04;;;;;;;3.35;1.48;;;17.10;99.90;;;;;;7282793;32;20214;-56
2023/09/20 08:13:07;;;;;;;2.87;1.50;;;17.10;99.90;;;;;;7294747;32;20210;-57
2023/09/20 08:21:34;;;;;;;6.30;1.60;;;17.20;99.90;;;;;;7308290;32;20138;-56
2023/09/20 09:00:49;;;;;;;6.20;1.20;;;18.30;99.90;;;;;;7298295;32;20199;-56
2023/09/20 09:04:53;;;;;;;4.28;1.23;;;18.40;99.90;;;;;;7302607;32;20158;-56
2023/09/20 09:08:55;;;;;;;2.45;1.15;;;18.30;99.90;;;;;;7302530;32;20720;-57
2023/09/20 09:12:57;;;;;;;3.47;1.33;;;18.40;99.90;;;;;;7302077;32;20115;-57
2023/09/20 09:17:04;;;;;;;2.37;1.30;;;18.60;99.90;;;;;;7289638;32;20532;-56
2023/09/20 09:21:06;;;;;;;5.13;1.50;;;18.60;99.90;;;;;;7288250;32;20193;-56
2023/09/20 09:25:11;;;;;;;4.15;1.15;;;18.80;99.90;;;;;;7304116;32;20117;-56
2023/09/20 09:29:19;;;;;;;2.50;1.27;;;18.80;99.90;;;;;;7302675;32;20104;-57
2023/09/20 09:33:23;;;;;;;2.72;0.93;;;19.00;99.90;;;;;;7307207;32;20341;-56
2023/09/20 09:37:25;;;;;;;12.55;1.50;;;20.00;99.90;;;;;;7301455;32;20100;-57
2023/09/20 09:41:43;;;;;;;1.92;0.98;;;20.70;99.90;;;;;;7304542;32;20672;-55
2023/09/20 09:45:51;;;;;;;6.90;1.10;;;20.70;99.90;;;;;;7300114;32;20099;-57
2023/09/20 09:49:53;;;;;;;2.50;1.10;;;20.70;99.90;;;;;;7305207;32;20100;-61
2023/09/20 09:53:58;;;;;;;2.97;1.10;;;20.70;99.90;;;;;;7302648;32;20832;-58
2023/09/20 09:58:04;;;;;;;6.35;1.42;;;21.00;99.90;;;;;;7309699;32;20559;-58
2023/09/20 10:07:16;;;;;;;2.22;0.85;;;21.20;99.90;;;;;;7301703;32;20176;-59
2023/09/20 10:11:21;;;;;;;3.53;1.30;;;21.50;99.90;;;;;;7303967;32;20451;-61
2023/09/20 10:15:24;;;;;;;3.42;1.20;;;22.10;99.90;;;;;;7301129;32;20199;-60
2023/09/20 10:19:27;;;;;;;2.50;1.12;;;22.20;99.90;;;;;;7304242;32;20095;-60
2023/09/20 10:23:29;;;;;;;1.60;0.93;;;22.00;99.90;;;;;;7306679;32;20135;-59
2023/09/20 10:27:31;;;;;;;2.22;1.23;;;22.10;99.90;;;;;;7315395;32;20257;-59
2023/09/20 10:31:39;;;;;;;4.62;1.10;;;22.10;99.90;;;;;;7306820;32;20307;-59
2023/09/20 10:35:42;;;;;;;4.30;1.33;;;22.20;99.90;;;;;;7305608;32;20799;-59
2023/09/20 10:39:48;;;;;;;2.15;0.98;;;21.90;99.90;;;;;;7303056;32;20104;-58
2023/09/20 10:43:51;;;;;;;3.65;1.00;;;21.80;99.90;;;;;;7305518;32;20674;-56
2023/09/20 10:47:53;;;;;;;2.83;0.90;;;21.60;99.90;;;;;;7289203;32;20316;-58
2023/09/20 10:51:55;;;;;;;2.30;0.80;;;21.60;99.90;;;;;;7299982;32;20589;-57
2023/09/20 10:55:58;;;;;;;1.23;0.70;;;21.60;99.90;;;;;;7302478;32;20173;-56
2023/09/20 11:00:01;;;;;;;2.67;0.80;;;21.80;99.90;;;;;;7302050;32;20128;-56
2023/09/20 11:04:05;;;;;;;2.87;0.80;;;22.20;99.90;;;;;;7301571;32;20561;-57
2023/09/20 11:08:08;;;;;;;2.37;0.60;;;22.30;99.90;;;;;;7301612;32;20100;-58
2023/09/20 11:12:11;;;;;;;2.28;0.80;;;22.10;99.90;;;;;;7297388;32;20191;-56
2023/09/20 11:16:18;;;;;;;5.05;0.90;;;22.30;99.90;;;;;;7301389;32;20669;-56
2023/09/20 11:20:20;;;;;;;;;;;22.30;99.90;;;;;;7298489;32;20259;-56
2023/09/20 11:24:23;;;;;;;4.25;0.80;;;22.40;99.90;;;;;;7301143;32;20085;-57
2023/09/20 11:28:27;;;;;;;2.45;0.60;;;22.50;99.90;;;;;;7298947;32;20908;-55
2023/09/20 11:32:28;;;;;;;5.22;0.90;;;22.70;99.90;;;;;;7295348;32;20870;-57
2023/09/20 11:36:38;;;;;;;1.92;0.75;;;22.80;99.90;;;;;;7298285;32;20112;-57
2023/09/20 11:40:41;;;;;;;2.35;0.98;;;23.00;99.90;;;;;;7300785;32;20977;-57
2023/09/20 11:44:55;;;;;;;1.45;0.77;;;22.80;99.90;;;;;;7299216;32;20333;-57
2023/09/20 11:49:04;;;;;;;2.28;1.00;;;22.60;99.90;;;;;;7293051;32;20124;-56
2023/09/20 11:53:06;;;;;;;3.37;0.75;;;22.40;99.90;;;;;;7292136;32;20171;-56
2023/09/20 11:57:08;;;;;;;2.95;0.68;;;22.30;99.90;;;;;;7296192;32;20119;-57
2023/09/20 12:01:10;;;;;;;2.90;0.80;;;22.20;99.90;;;;;;7290025;32;20166;-57
2023/09/20 12:05:11;;;;;;;1.50;0.55;;;22.40;99.90;;;;;;7294908;32;20449;-56
2023/09/20 12:09:13;;;;;;;1.80;0.77;;;22.60;99.90;;;;;;7298833;32;20599;-58
2023/09/20 12:13:15;;;;;;;3.53;0.88;;;22.80;99.90;;;;;;7289792;32;20243;-58
2023/09/20 12:17:17;;;;;;;4.05;1.00;;;22.80;99.90;;;;;;7295437;32;20537;-58
2023/09/20 12:21:19;;;;;;;1.92;0.80;;;22.90;99.90;;;;;;7296538;32;20223;-58
2023/09/20 12:25:20;;;;;;;3.80;0.93;;;23.10;99.90;;;;;;7304887;32;20207;-57
2023/09/20 12:29:22;;;;;;;3.70;0.77;;;23.20;99.90;;;;;;7300878;32;20212;-59
2023/09/20 12:33:25;;;;;;;6.68;1.02;;;23.20;99.90;;;;;;7299652;32;20252;-59
2023/09/20 12:37:27;;;;;;;3.20;0.75;;;23.10;99.90;;;;;;7298028;32;20156;-57
2023/09/20 12:41:29;;;;;;;1.60;0.75;;;23.10;99.90;;;;;;7296363;32;20325;-57
2023/09/20 12:45:32;;;;;;;4.07;0.98;;;23.10;99.90;;;;;;7297225;32;20100;-58
2023/09/20 12:49:36;;;;;;;2.92;1.10;;;23.00;99.90;;;;;;7298122;32;22120;-58
2023/09/20 12:53:39;;;;;;;3.20;0.88;;;23.10;99.90;;;;;;7297625;32;20104;-58
2023/09/20 12:57:42;;;;;;;2.03;0.90;;;23.10;99.90;;;;;;7302910;32;20162;-57
2023/09/20 13:01:49;;;;;;;2.15;0.85;;;23.10;99.90;;;;;;7297346;32;20877;-58
2023/09/20 13:05:50;;;;;;;3.60;1.37;;;23.20;99.90;;;;;;7297832;32;20275;-56
2023/09/20 13:09:54;;;;;;;3.70;0.95;;;23.50;99.90;;;;;;7298504;32;20739;-56
2023/09/20 13:13:56;;;;;;;3.17;0.88;;;23.40;99.90;;;;;;7297642;32;20122;-56
2023/09/20 13:17:58;;;;;;;4.32;1.20;;;23.30;99.90;;;;;;7300615;32;20540;-55
2023/09/20 13:22:01;;;;;;;2.95;1.00;;;23.40;99.90;;;;;;7293695;32;20263;-55
2023/09/20 13:26:03;;;;;;;3.58;0.90;;;23.30;99.90;;;;;;7296847;32;21256;-56
2023/09/20 13:30:10;;;;;;;7.25;1.20;;;23.30;99.90;;;;;;7296682;32;20125;-56
2023/09/20 13:34:16;;;;;;;2.87;1.45;;;23.10;99.90;;;;;;7298364;32;20116;-55
2023/09/20 13:38:17;;;;;;;2.12;1.17;;;23.10;99.90;;;;;;7299910;32;20182;-56
2023/09/20 13:42:19;;;;;;;3.03;1.30;;;23.30;99.90;;;;;;7300292;32;20168;-56
2023/09/20 13:46:21;;;;;;;4.60;1.25;;;23.40;99.90;;;;;;7310807;32;20517;-56
2023/09/20 13:50:23;;;;;;;3.45;1.10;;;23.30;99.90;;;;;;7306292;32;20197;-56
2023/09/20 13:54:25;;;;;;;3.37;1.27;;;23.10;99.90;;;;;;7294709;32;20199;-56
2023/09/20 13:58:27;;;;;;;3.25;1.30;;;23.10;99.90;;;;;;7303610;32;20096;-55
2023/09/20 14:02:29;;;;;;;2.83;1.27;;;23.20;99.90;;;;;;7310267;32;20104;-56
2023/09/20 14:06:31;;;;;;;3.80;1.20;;;23.40;99.90;;;;;;7310314;32;20122;-56
2023/09/20 14:10:34;;;;;;;2.85;1.20;;;23.40;99.90;;;;;;7306617;32;20108;-56
2023/09/20 14:14:36;;;;;;;3.37;1.00;;;23.30;99.90;;;;;;7314205;32;20100;-56
2023/09/20 14:18:40;;;;;;;6.30;1.10;;;23.40;99.90;;;;;;7313922;32;20157;-56
2023/09/20 14:22:42;;;;;;;2.45;1.30;;;23.50;99.90;;;;;;7316902;32;20124;-55
2023/09/20 14:26:45;;;;;;;4.22;1.20;;;23.60;99.90;;;;;;7316735;32;20195;-56
2023/09/20 14:30:47;;;;;;;3.40;1.33;;;23.80;99.90;;;;;;7314590;32;20141;-57
2023/09/20 14:34:50;;;;;;;2.95;1.20;;;23.50;99.90;;;;;;7311983;32;20100;-56
2023/09/20 14:38:51;;;;;;;2.72;1.20;;;23.50;99.90;;;;;;7310018;32;20139;-57
2023/09/20 14:42:55;;;;;;;1.83;1.10;;;23.50;99.90;;;;;;7303023;32;20100;-54
2023/09/20 14:47:00;;;;;;;4.05;1.55;;;23.40;99.90;;;;;;7301096;32;20130;-55
2023/09/20 14:51:01;;;;;;;3.58;1.02;;;23.40;99.90;;;;;;7308664;32;20104;-54
2023/09/20 14:55:04;;;;;;;5.03;1.65;;;23.20;99.90;;;;;;7312239;32;20100;-57
2023/09/20 14:59:06;;;;;;;5.22;1.50;;;23.10;99.90;;;;;;7312236;32;20108;-56
2023/09/20 15:03:09;;;;;;;3.22;1.48;;;23.00;99.90;;;;;;7309875;32;20474;-56
2023/09/20 15:07:11;;;;;;;3.58;1.25;;;22.90;99.90;;;;;;7311109;32;20255;-56
2023/09/20 15:11:13;;;;;;;4.47;1.55;;;22.90;99.90;;;;;;7297303;32;20630;-56
2023/09/20 15:15:15;;;;;;;1.92;1.15;;;22.90;99.90;;;;;;7300060;32;20234;-56
2023/09/20 15:19:17;;;;;;;1.85;0.85;;;22.90;99.90;;;;;;7306810;32;20221;-58
2023/09/20 15:23:19;;;;;;;4.37;1.30;;;22.80;99.90;;;;;;7319458;32;20110;-56
2023/09/20 15:27:21;;;;;;;3.08;1.33;;;22.90;99.90;;;;;;7319145;32;20126;-56
2023/09/20 15:31:25;;;;;;;2.78;1.10;;;22.90;99.90;;;;;;7318913;32;20100;-56
2023/09/20 15:35:27;;;;;;;2.45;1.40;;;22.80;99.90;;;;;;7306142;32;20129;-56
2023/09/20 15:39:29;;;;;;;4.78;1.10;;;22.80;99.90;;;;;;7315859;32;20100;-56
2023/09/20 15:43:39;;;;;;;2.42;1.25;;;22.80;99.90;;;;;;7314198;32;20127;-57
2023/09/20 15:47:41;;;;;;;2.72;1.25;;;22.90;99.90;;;;;;7310993;32;20470;-56
2023/09/20 15:51:43;;;;;;;3.05;1.20;;;22.80;99.90;;;;;;7319886;32;20107;-56
2023/09/20 15:55:45;;;;;;;5.40;1.02;;;22.90;99.90;;;;;;7302233;32;20179;-56
2023/09/20 15:59:47;;;;;;;2.95;1.00;;;22.80;99.90;;;;;;7306847;32;20146;-56
2023/09/20 16:03:49;;;;;;;2.75;1.08;;;22.70;99.90;;;;;;7310558;32;20096;-55
2023/09/20 16:07:51;;;;;;;2.12;1.00;;;22.70;99.90;;;;;;7317616;32;20131;-55
2023/09/20 16:11:52;;;;;;;2.28;0.70;;;22.60;99.90;;;;;;7307373;32;20123;-57
2023/09/20 16:15:54;;;;;;;3.05;0.90;;;22.40;99.90;;;;;;7300183;32;20215;-56
2023/09/20 16:19:56;;;;;;;2.80;1.00;;;22.30;99.90;;;;;;7300806;32;20201;-55
2023/09/20 16:23:58;;;;;;;2.72;1.20;;;22.20;99.90;;;;;;7298919;32;20221;-55
2023/09/20 16:28:00;;;;;;;3.45;1.10;;;22.10;99.90;;;;;;7293768;32;20108;-56
2023/09/20 16:32:02;;;;;;;3.70;1.10;;;22.00;99.90;;;;;;7294856;32;20570;-56
2023/09/20 16:36:04;;;;;;;3.83;1.30;;;21.90;99.90;;;;;;7300444;32;20221;-56
2023/09/20 16:40:07;;;;;;;2.92;1.20;;;21.70;99.90;;;;;;7299439;32;20157;-54
2023/09/20 16:44:09;;;;;;;3.33;1.00;;;21.70;99.90;;;;;;7292349;32;20549;-56
2023/09/20 16:48:12;;;;;;;2.60;1.20;;;21.50;99.90;;;;;;7299873;32;20282;-56
2023/09/20 16:52:14;;;;;;;3.20;1.08;;;21.40;99.90;;;;;;7295672;32;20103;-56
2023/09/20 16:56:16;;;;;;;3.55;1.42;;;21.20;99.90;;;;;;7303590;32;20312;-57
2023/09/20 17:00:18;;;;;;;3.72;1.00;;;21.20;99.90;;;;;;7308359;32;20119;-57
2023/09/20 17:04:20;;;;;;;4.32;1.17;;;21.00;99.90;;;;;;7293769;32;20099;-56
2023/09/20 17:08:23;;;;;;;4.03;1.30;;;21.00;99.90;;;;;;7302358;32;20215;-56
2023/09/20 17:12:24;;;;;;;4.75;1.30;;;20.90;99.90;;;;;;7300103;32;20217;-56
2023/09/20 17:16:26;;;;;;;5.22;1.10;;;20.80;99.90;;;;;;7288102;32;20175;-56
2023/09/20 17:20:28;;;;;;;3.10;1.37;;;20.70;99.90;;;;;;7299684;32;21356;-54
2023/09/20 17:24:31;;;;;;;3.58;1.00;;;20.70;99.90;;;;;;7286097;32;20384;-56
2023/09/20 17:28:33;;;;;;;5.50;1.12;;;20.60;99.90;;;;;;7293937;32;20164;-56
2023/09/20 17:32:35;;;;;;;2.92;1.08;;;20.50;99.90;;;;;;7297022;32;20217;-55
2023/09/20 17:36:37;;;;;;;3.35;1.23;;;20.50;99.90;;;;;;7293982;32;20824;-55
2023/09/20 17:40:40;;;;;;;3.85;1.45;;;20.30;99.90;;;;;;7296673;32;20478;-57
2023/09/20 17:44:42;;;;;;;4.78;1.23;;;20.30;99.90;;;;;;7301083;32;20104;-56
2023/09/20 17:48:43;;;;;;;4.47;1.25;;;20.20;99.90;;;;;;7297472;32;20435;-55
2023/09/20 17:52:50;;;;;;;3.80;1.30;;;20.20;99.90;;;;;;7308039;32;20263;-55
2023/09/20 17:56:52;;;;;;;3.20;1.30;;;19.90;99.90;;;;;;7304704;32;20678;-55
2023/09/20 18:00:54;;;;;;;3.33;1.33;;;19.90;99.90;;;;;;7305638;32;20187;-56
2023/09/20 18:04:57;;;;;;;4.15;1.62;;;19.70;99.90;;;;;;7307209;32;20329;-58
2023/09/20 18:08:59;;;;;;;5.65;1.50;;;19.60;99.90;;;;;;7281677;32;20519;-56
2023/09/20 18:13:03;;;;;;;2.75;1.40;;;19.40;99.90;;;;;;7306202;32;20233;-57
2023/09/20 18:17:05;;;;;;;3.97;1.40;;;19.30;99.90;;;;;;7300693;32;20187;-56
2023/09/20 18:21:08;;;;;;;5.25;1.40;;;19.20;99.90;;;;;;7298224;32;20170;-56
2023/09/20 18:25:10;;;;;;;4.57;1.48;;;19.00;99.90;;;;;;7302292;32;20794;-56
2023/09/20 18:29:12;;;;;;;2.45;1.20;;;18.90;99.90;;;;;;7305048;32;20112;-56
2023/09/20 18:33:14;;;;;;;5.12;1.60;;;18.80;99.90;;;;;;7302791;32;20142;-56
2023/09/20 18:37:17;;;;;;;4.72;1.50;;;18.60;99.90;;;;;;7302336;32;20649;-55
2023/09/20 18:41:19;;;;;;;11.52;1.70;;;18.50;99.90;;;;;;7303231;32;20178;-56
2023/09/20 18:45:21;;;;;;;4.32;1.65;;;18.40;99.90;;;;;;7296513;32;20139;-55
2023/09/20 18:49:24;;;;;;;3.12;1.30;;;18.30;99.90;;;;;;7296411;32;20368;-55
2023/09/20 18:53:25;;;;;;;2.37;1.48;;;18.10;99.90;;;;;;7294968;32;20100;-55
2023/09/20 18:57:27;;;;;;;3.87;1.62;;;18.00;99.90;;;;;;7306115;32;20618;-55
2023/09/20 19:01:29;;;;;;;3.97;1.60;;;17.80;99.90;;;;;;7299097;32;20107;-56
2023/09/20 19:05:34;;;;;;;4.40;1.50;;;17.80;99.90;;;;;;7304340;32;20259;-56
2023/09/20 19:09:36;;;;;;;2.95;1.45;;;17.70;99.90;;;;;;7299355;32;20175;-56
2023/09/20 19:13:38;;;;;;;3.37;1.40;;;17.70;99.90;;;;;;7304105;32;20119;-55
2023/09/20 19:17:41;;;;;;;2.72;1.40;;;17.60;99.90;;;;;;7301644;32;20188;-55
2023/09/20 19:21:46;;;;;;;4.50;1.80;;;17.60;99.90;;;;;;7301355;32;20845;-55
2023/09/20 19:25:54;;;;;;;4.05;1.90;;;17.70;99.90;;;;;;7299143;32;20294;-55
2023/09/20 19:30:00;;;;;;;4.15;1.90;;;17.70;99.90;;;;;;7299760;32;20228;-54
2023/09/20 19:34:02;;;;;;;4.62;1.52;;;17.60;99.90;;;;;;7302061;32;20486;-56
2023/09/20 19:38:04;;;;;;;3.53;1.45;;;17.60;99.90;;;;;;7303073;32;20111;-56
2023/09/20 19:42:06;;;;;;;5.55;1.92;;;17.60;99.90;;;;;;7296929;32;20361;-56
2023/09/20 19:46:12;;;;;;;5.50;1.35;;;17.60;99.90;;;;;;7300472;32;20128;-56
2023/09/20 19:50:17;;;;;;;5.10;1.80;;;17.60;99.90;;;;;;7304775;32;20108;-57
2023/09/20 19:54:20;;;;;;;3.75;1.80;;;17.60;99.90;;;;;;7306014;32;20134;-56
2023/09/20 19:58:22;;;;;;;4.40;1.70;;;17.60;99.90;;;;;;7301746;32;20122;-56
2023/09/20 20:02:27;;;;;;;4.40;1.58;;;17.60;99.90;;;;;;7303416;32;20194;-57
2023/09/20 20:06:29;;;;;;;5.95;1.73;;;17.70;99.90;;;;;;7301943;32;20095;-56
2023/09/20 20:10:31;;;;;;;5.32;1.60;;;17.60;99.90;;;;;;7298744;32;20738;-56
2023/09/20 20:14:34;;;;;;;3.15;1.75;;;17.70;99.90;;;;;;7297402;32;20880;-56
2023/09/20 20:18:36;;;;;;;3.35;1.62;;;17.60;99.90;;;;;;7296198;32;20218;-55
2023/09/20 20:22:38;;;;;;;3.60;1.90;;;17.60;99.90;;;;;;7300358;32;20834;-55
2023/09/20 20:26:41;;;;;;;4.72;1.65;;;17.70;99.90;;;;;;7291281;32;20130;-55
2023/09/20 20:30:43;;;;;;;5.45;2.00;;;17.70;99.90;;;;;;7298946;32;20461;-57
2023/09/20 20:34:45;;;;;;;6.00;1.70;;;17.70;99.90;;;;;;7291878;32;20115;-56
2023/09/20 20:38:47;;;;;;;5.28;1.55;;;17.70;99.90;;;;;;7302920;32;20107;-55
2023/09/20 20:42:51;;;;;;;5.05;1.48;;;17.70;99.90;;;;;;7298494;32;20477;-56
2023/09/20 20:46:53;;;;;;;2.70;1.70;;;17.70;99.90;;;;;;7295440;32;20095;-57
2023/09/20 20:50:57;;;;;;;5.72;1.77;;;17.70;99.90;;;;;;7301400;32;20223;-56
2023/09/20 20:54:59;;;;;;;3.35;1.60;;;17.70;99.90;;;;;;7297172;32;20217;-55
2023/09/20 20:59:01;;;;;;;3.17;1.67;;;17.70;99.90;;;;;;7300031;32;20250;-56
2023/09/20 21:03:10;;;;;;;4.15;1.60;;;17.60;99.90;;;;;;7299217;32;20206;-56
2023/09/20 21:07:13;;;;;;;4.55;1.77;;;17.70;99.90;;;;;;7299065;32;20100;-56
2023/09/20 21:11:16;;;;;;;4.87;1.60;;;17.60;99.90;;;;;;7296410;32;20100;-56
2023/09/20 21:15:22;;;;;;;5.57;1.85;;;17.60;99.90;;;;;;7300770;32;20313;-56
2023/09/20 21:19:23;;;;;;;4.90;1.40;;;17.70;99.90;;;;;;7306244;32;20146;-56
2023/09/20 21:23:25;;;;;;;2.78;1.35;;;17.60;99.90;;;;;;7309206;32;20130;-56
2023/09/20 21:27:27;;;;;;;4.82;1.55;;;17.50;99.90;;;;;;7297320;32;20217;-55
2023/09/20 21:31:28;;;;;;;3.55;2.10;;;17.50;99.90;;;;;;7304896;32;20104;-55
2023/09/20 21:35:32;;;;;;;5.20;1.52;;;17.60;99.90;;;;;;7299718;32;20113;-55
2023/09/20 21:39:33;;;;;;;8.00;1.60;;;17.70;99.90;;;;;;7301932;32;20092;-55
2023/09/20 21:43:35;;;;;;;2.25;1.30;;;17.60;99.90;;;;;;7303163;32;20157;-56
2023/09/20 21:47:37;;;;;;;2.30;1.23;;;17.60;99.90;;;;;;7299544;32;20134;-56
2023/09/20 21:51:41;;;;;;;3.70;1.50;;;17.50;99.90;;;;;;7305600;32;20122;-55